sensor_id;sensor_type;location;lat;lon;timestamp;P1;durP1;ratioP1;P2;durP2;ratioP2
69240;SDS011;56352;55.750;13.198;2023-08-31T00:00:50;1.83;;;1.35;;
69240;SDS011;56352;55.750;13.198;2023-08-31T00:03:20;3.33;;;1.92;;
69240;SDS011;56352;55.750;13.198;2023-08-31T00:05:46;3.33;;;2.40;;
69240;SDS011;56352;55.750;13.198;2023-08-31T00:08:13;2.28;;;1.98;;
69240;SDS011;56352;55.750;13.198;2023-08-31T00:10:40;2.63;;;2.05;;
69240;SDS011;56352;55.750;13.198;2023-08-31T00:13:06;2.42;;;1.75;;
69240;SDS011;56352;55.750;13.198;2023-08-31T00:15:34;2.92;;;2.25;;
69240;SDS011;56352;55.750;13.198;2023-08-31T00:18:02;4.38;;;1.85;;
69240;SDS011;56352;55.750;13.198;2023-08-31T00:20:32;3.15;;;1.75;;
69240;SDS011;56352;55.750;13.198;2023-08-31T00:23:05;2.65;;;2.05;;
69240;SDS011;56352;55.750;13.198;2023-08-31T00:25:32;2.05;;;1.60;;
69240;SDS011;56352;55.750;13.198;2023-08-31T00:27:58;1.98;;;1.70;;
69240;SDS011;56352;55.750;13.198;2023-08-31T00:30:31;2.05;;;1.80;;
69240;SDS011;56352;55.750;13.198;2023-08-31T00:32:58;2.70;;;1.92;;
69240;SDS011;56352;55.750;13.198;2023-08-31T00:35:28;2.25;;;1.83;;
69240;SDS011;56352;55.750;13.198;2023-08-31T00:37:55;3.50;;;1.98;;
69240;SDS011;56352;55.750;13.198;2023-08-31T00:40:25;2.70;;;1.80;;
69240;SDS011;56352;55.750;13.198;2023-08-31T00:42:52;2.33;;;1.70;;
69240;SDS011;56352;55.750;13.198;2023-08-31T00:45:18;3.85;;;1.80;;
69240;SDS011;56352;55.750;13.198;2023-08-31T00:47:46;2.35;;;1.42;;
69240;SDS011;56352;55.750;13.198;2023-08-31T00:50:13;2.33;;;1.35;;
69240;SDS011;56352;55.750;13.198;2023-08-31T00:52:41;1.70;;;1.40;;
69240;SDS011;56352;55.750;13.198;2023-08-31T00:55:10;1.73;;;1.20;;
69240;SDS011;56352;55.750;13.198;2023-08-31T00:57:37;1.75;;;1.38;;
69240;SDS011;56352;55.750;13.198;2023-08-31T01:00:04;3.00;;;1.60;;
69240;SDS011;56352;55.750;13.198;2023-08-31T01:02:37;2.28;;;1.63;;
69240;SDS011;56352;55.750;13.198;2023-08-31T01:11:24;4.00;;;1.85;;
69240;SDS011;56352;55.750;13.198;2023-08-31T01:13:57;2.72;;;1.92;;
69240;SDS011;56352;55.750;13.198;2023-08-31T01:16:34;3.58;;;1.95;;
69240;SDS011;56352;55.750;13.198;2023-08-31T01:19:04;3.33;;;2.07;;
69240;SDS011;56352;55.750;13.198;2023-08-31T01:21:39;2.90;;;2.33;;
69240;SDS011;56352;55.750;13.198;2023-08-31T01:24:08;2.25;;;2.03;;
69240;SDS011;56352;55.750;13.198;2023-08-31T01:26:35;2.47;;;2.10;;
69240;SDS011;56352;55.750;13.198;2023-08-31T01:29:02;2.58;;;1.98;;
69240;SDS011;56352;55.750;13.198;2023-08-31T01:31:29;4.13;;;2.30;;
69240;SDS011;56352;55.750;13.198;2023-08-31T01:33:56;2.70;;;1.70;;
69240;SDS011;56352;55.750;13.198;2023-08-31T01:36:24;1.73;;;1.63;;
69240;SDS011;56352;55.750;13.198;2023-08-31T01:41:46;3.85;;;1.70;;
69240;SDS011;56352;55.750;13.198;2023-08-31T01:44:15;1.63;;;1.52;;
69240;SDS011;56352;55.750;13.198;2023-08-31T01:46:45;2.50;;;1.77;;
69240;SDS011;56352;55.750;13.198;2023-08-31T01:49:12;2.20;;;1.80;;
69240;SDS011;56352;55.750;13.198;2023-08-31T01:51:40;3.55;;;1.90;;
69240;SDS011;56352;55.750;13.198;2023-08-31T01:54:07;2.10;;;1.60;;
69240;SDS011;56352;55.750;13.198;2023-08-31T01:56:33;2.40;;;1.70;;
69240;SDS011;56352;55.750;13.198;2023-08-31T01:59:00;1.80;;;1.38;;
69240;SDS011;56352;55.750;13.198;2023-08-31T02:01:27;2.65;;;1.83;;
69240;SDS011;56352;55.750;13.198;2023-08-31T02:03:53;3.60;;;2.20;;
69240;SDS011;56352;55.750;13.198;2023-08-31T02:06:20;3.05;;;1.85;;
69240;SDS011;56352;55.750;13.198;2023-08-31T02:08:47;2.80;;;1.60;;
69240;SDS011;56352;55.750;13.198;2023-08-31T02:11:13;4.30;;;1.70;;
69240;SDS011;56352;55.750;13.198;2023-08-31T02:13:41;2.45;;;1.83;;
69240;SDS011;56352;55.750;13.198;2023-08-31T02:16:08;2.40;;;1.60;;
69240;SDS011;56352;55.750;13.198;2023-08-31T02:18:35;2.50;;;1.67;;
69240;SDS011;56352;55.750;13.198;2023-08-31T02:21:01;2.88;;;1.92;;
69240;SDS011;56352;55.750;13.198;2023-08-31T02:23:30;2.17;;;1.50;;
69240;SDS011;56352;55.750;13.198;2023-08-31T02:25:57;1.27;;;1.17;;
69240;SDS011;56352;55.750;13.198;2023-08-31T02:28:23;2.33;;;1.55;;
69240;SDS011;56352;55.750;13.198;2023-08-31T02:30:57;2.88;;;1.83;;
69240;SDS011;56352;55.750;13.198;2023-08-31T02:33:28;2.55;;;1.45;;
69240;SDS011;56352;55.750;13.198;2023-08-31T02:35:55;4.43;;;1.70;;
69240;SDS011;56352;55.750;13.198;2023-08-31T02:38:22;2.42;;;1.50;;
69240;SDS011;56352;55.750;13.198;2023-08-31T02:40:48;2.00;;;1.65;;
69240;SDS011;56352;55.750;13.198;2023-08-31T02:43:15;2.40;;;1.65;;
69240;SDS011;56352;55.750;13.198;2023-08-31T02:45:42;4.30;;;1.95;;
69240;SDS011;56352;55.750;13.198;2023-08-31T02:48:09;2.10;;;1.70;;
69240;SDS011;56352;55.750;13.198;2023-08-31T02:50:36;2.50;;;1.77;;
69240;SDS011;56352;55.750;13.198;2023-08-31T02:53:04;2.47;;;1.80;;
69240;SDS011;56352;55.750;13.198;2023-08-31T02:55:34;2.15;;;1.70;;
69240;SDS011;56352;55.750;13.198;2023-08-31T02:58:01;4.80;;;2.13;;
69240;SDS011;56352;55.750;13.198;2023-08-31T03:00:27;2.60;;;1.70;;
69240;SDS011;56352;55.750;13.198;2023-08-31T03:02:54;2.63;;;2.20;;
69240;SDS011;56352;55.750;13.198;2023-08-31T03:05:21;2.40;;;1.80;;
69240;SDS011;56352;55.750;13.198;2023-08-31T03:07:48;3.70;;;2.30;;
69240;SDS011;56352;55.750;13.198;2023-08-31T03:10:14;3.08;;;1.92;;
69240;SDS011;56352;55.750;13.198;2023-08-31T03:12:41;2.95;;;2.20;;
69240;SDS011;56352;55.750;13.198;2023-08-31T03:15:08;2.33;;;1.92;;
69240;SDS011;56352;55.750;13.198;2023-08-31T03:17:35;2.20;;;2.00;;
69240;SDS011;56352;55.750;13.198;2023-08-31T03:20:02;3.42;;;2.00;;
69240;SDS011;56352;55.750;13.198;2023-08-31T03:22:30;2.88;;;2.17;;
69240;SDS011;56352;55.750;13.198;2023-08-31T03:24:56;3.08;;;2.22;;
69240;SDS011;56352;55.750;13.198;2023-08-31T03:27:23;2.67;;;2.08;;
69240;SDS011;56352;55.750;13.198;2023-08-31T03:29:51;3.67;;;2.30;;
69240;SDS011;56352;55.750;13.198;2023-08-31T03:32:18;2.55;;;2.35;;
69240;SDS011;56352;55.750;13.198;2023-08-31T03:34:45;3.55;;;2.33;;
69240;SDS011;56352;55.750;13.198;2023-08-31T03:37:12;2.60;;;2.30;;
69240;SDS011;56352;55.750;13.198;2023-08-31T03:39:39;4.75;;;2.33;;
69240;SDS011;56352;55.750;13.198;2023-08-31T03:42:07;4.25;;;2.95;;
69240;SDS011;56352;55.750;13.198;2023-08-31T03:44:35;5.13;;;3.13;;
69240;SDS011;56352;55.750;13.198;2023-08-31T03:47:03;4.00;;;2.92;;
69240;SDS011;56352;55.750;13.198;2023-08-31T03:49:30;4.95;;;3.22;;
69240;SDS011;56352;55.750;13.198;2023-08-31T03:51:58;4.30;;;3.17;;
69240;SDS011;56352;55.750;13.198;2023-08-31T03:54:25;5.28;;;3.65;;
69240;SDS011;56352;55.750;13.198;2023-08-31T03:56:51;4.15;;;3.20;;
69240;SDS011;56352;55.750;13.198;2023-08-31T03:59:18;4.03;;;3.13;;
69240;SDS011;56352;55.750;13.198;2023-08-31T04:01:44;3.47;;;2.92;;
69240;SDS011;56352;55.750;13.198;2023-08-31T04:04:11;5.60;;;3.03;;
69240;SDS011;56352;55.750;13.198;2023-08-31T04:06:38;4.05;;;2.80;;
69240;SDS011;56352;55.750;13.198;2023-08-31T04:09:05;3.22;;;2.78;;
69240;SDS011;56352;55.750;13.198;2023-08-31T04:11:32;4.55;;;2.97;;
69240;SDS011;56352;55.750;13.198;2023-08-31T04:13:58;3.97;;;3.00;;
69240;SDS011;56352;55.750;13.198;2023-08-31T04:16:25;3.28;;;2.97;;
69240;SDS011;56352;55.750;13.198;2023-08-31T04:18:51;3.78;;;2.78;;
69240;SDS011;56352;55.750;13.198;2023-08-31T04:21:18;5.55;;;2.90;;
69240;SDS011;56352;55.750;13.198;2023-08-31T04:23:45;4.53;;;3.33;;
69240;SDS011;56352;55.750;13.198;2023-08-31T04:26:12;5.15;;;3.28;;
69240;SDS011;56352;55.750;13.198;2023-08-31T04:28:39;6.28;;;3.10;;
69240;SDS011;56352;55.750;13.198;2023-08-31T04:31:07;3.30;;;2.70;;
69240;SDS011;56352;55.750;13.198;2023-08-31T04:33:35;5.00;;;2.90;;
69240;SDS011;56352;55.750;13.198;2023-08-31T04:36:03;5.38;;;2.88;;
69240;SDS011;56352;55.750;13.198;2023-08-31T04:38:31;5.07;;;2.75;;
69240;SDS011;56352;55.750;13.198;2023-08-31T04:40:58;4.53;;;2.85;;
69240;SDS011;56352;55.750;13.198;2023-08-31T04:43:26;3.88;;;2.97;;
69240;SDS011;56352;55.750;13.198;2023-08-31T04:45:53;4.13;;;2.92;;
69240;SDS011;56352;55.750;13.198;2023-08-31T04:48:20;5.03;;;2.88;;
69240;SDS011;56352;55.750;13.198;2023-08-31T04:50:47;3.85;;;2.80;;
69240;SDS011;56352;55.750;13.198;2023-08-31T04:53:14;4.03;;;2.80;;
69240;SDS011;56352;55.750;13.198;2023-08-31T04:55:41;3.08;;;2.78;;
69240;SDS011;56352;55.750;13.198;2023-08-31T04:58:08;3.85;;;2.85;;
69240;SDS011;56352;55.750;13.198;2023-08-31T05:00:34;5.13;;;3.30;;
69240;SDS011;56352;55.750;13.198;2023-08-31T05:03:01;3.97;;;2.78;;
69240;SDS011;56352;55.750;13.198;2023-08-31T05:05:29;3.20;;;2.58;;
69240;SDS011;56352;55.750;13.198;2023-08-31T05:07:58;3.22;;;2.80;;
69240;SDS011;56352;55.750;13.198;2023-08-31T05:10:27;3.47;;;3.03;;
69240;SDS011;56352;55.750;13.198;2023-08-31T05:12:53;4.18;;;3.20;;
69240;SDS011;56352;55.750;13.198;2023-08-31T05:15:20;4.50;;;2.67;;
69240;SDS011;56352;55.750;13.198;2023-08-31T05:17:47;3.20;;;2.60;;
69240;SDS011;56352;55.750;13.198;2023-08-31T05:20:14;3.28;;;2.72;;
69240;SDS011;56352;55.750;13.198;2023-08-31T05:22:41;4.45;;;3.20;;
69240;SDS011;56352;55.750;13.198;2023-08-31T05:25:08;3.88;;;3.28;;
69240;SDS011;56352;55.750;13.198;2023-08-31T05:27:34;3.60;;;3.17;;
69240;SDS011;56352;55.750;13.198;2023-08-31T05:30:01;3.58;;;3.22;;
69240;SDS011;56352;55.750;13.198;2023-08-31T05:32:28;3.45;;;3.08;;
69240;SDS011;56352;55.750;13.198;2023-08-31T05:34:56;6.30;;;3.60;;
69240;SDS011;56352;55.750;13.198;2023-08-31T05:37:23;4.70;;;3.25;;
69240;SDS011;56352;55.750;13.198;2023-08-31T05:39:50;7.38;;;3.47;;
69240;SDS011;56352;55.750;13.198;2023-08-31T05:42:17;3.70;;;3.15;;
69240;SDS011;56352;55.750;13.198;2023-08-31T05:44:44;5.05;;;3.35;;
69240;SDS011;56352;55.750;13.198;2023-08-31T05:47:11;3.95;;;2.65;;
69240;SDS011;56352;55.750;13.198;2023-08-31T05:49:37;3.47;;;2.85;;
69240;SDS011;56352;55.750;13.198;2023-08-31T05:52:04;5.07;;;3.40;;
69240;SDS011;56352;55.750;13.198;2023-08-31T05:54:32;4.90;;;3.30;;
69240;SDS011;56352;55.750;13.198;2023-08-31T05:56:59;5.07;;;3.22;;
69240;SDS011;56352;55.750;13.198;2023-08-31T05:59:25;3.20;;;2.72;;
69240;SDS011;56352;55.750;13.198;2023-08-31T06:01:52;4.70;;;3.38;;
69240;SDS011;56352;55.750;13.198;2023-08-31T06:04:21;5.13;;;3.10;;
69240;SDS011;56352;55.750;13.198;2023-08-31T06:06:48;4.97;;;3.42;;
69240;SDS011;56352;55.750;13.198;2023-08-31T06:09:14;3.53;;;2.83;;
69240;SDS011;56352;55.750;13.198;2023-08-31T06:11:42;4.10;;;3.10;;
69240;SDS011;56352;55.750;13.198;2023-08-31T06:14:09;6.47;;;2.90;;
69240;SDS011;56352;55.750;13.198;2023-08-31T06:16:35;3.83;;;3.10;;
69240;SDS011;56352;55.750;13.198;2023-08-31T06:19:02;3.92;;;3.08;;
69240;SDS011;56352;55.750;13.198;2023-08-31T06:21:29;3.75;;;3.08;;
69240;SDS011;56352;55.750;13.198;2023-08-31T06:23:56;3.35;;;2.80;;
69240;SDS011;56352;55.750;13.198;2023-08-31T06:26:23;3.38;;;2.65;;
69240;SDS011;56352;55.750;13.198;2023-08-31T06:28:49;3.80;;;2.92;;
69240;SDS011;56352;55.750;13.198;2023-08-31T06:31:17;5.53;;;2.92;;
69240;SDS011;56352;55.750;13.198;2023-08-31T06:33:44;4.63;;;2.85;;
69240;SDS011;56352;55.750;13.198;2023-08-31T06:36:10;3.25;;;2.95;;
69240;SDS011;56352;55.750;13.198;2023-08-31T06:38:37;3.72;;;2.63;;
69240;SDS011;56352;55.750;13.198;2023-08-31T06:41:04;3.92;;;2.67;;
69240;SDS011;56352;55.750;13.198;2023-08-31T06:43:30;3.83;;;2.53;;
69240;SDS011;56352;55.750;13.198;2023-08-31T06:45:57;6.40;;;2.63;;
69240;SDS011;56352;55.750;13.198;2023-08-31T06:48:44;3.33;;;2.58;;
69240;SDS011;56352;55.750;13.198;2023-08-31T06:51:11;2.50;;;2.30;;
69240;SDS011;56352;55.750;13.198;2023-08-31T06:53:37;3.10;;;2.70;;
69240;SDS011;56352;55.750;13.198;2023-08-31T06:56:04;3.97;;;2.28;;
69240;SDS011;56352;55.750;13.198;2023-08-31T06:58:31;3.70;;;2.45;;
69240;SDS011;56352;55.750;13.198;2023-08-31T07:00:57;2.72;;;2.22;;
69240;SDS011;56352;55.750;13.198;2023-08-31T07:03:24;2.80;;;2.28;;
69240;SDS011;56352;55.750;13.198;2023-08-31T07:05:53;7.77;;;2.50;;
69240;SDS011;56352;55.750;13.198;2023-08-31T07:08:20;2.53;;;2.33;;
69240;SDS011;56352;55.750;13.198;2023-08-31T07:10:47;2.80;;;2.30;;
69240;SDS011;56352;55.750;13.198;2023-08-31T07:13:16;3.58;;;2.33;;
69240;SDS011;56352;55.750;13.198;2023-08-31T07:15:43;2.80;;;2.28;;
69240;SDS011;56352;55.750;13.198;2023-08-31T07:18:10;5.22;;;2.60;;
69240;SDS011;56352;55.750;13.198;2023-08-31T07:20:36;3.85;;;2.35;;
69240;SDS011;56352;55.750;13.198;2023-08-31T07:23:03;4.22;;;2.20;;
69240;SDS011;56352;55.750;13.198;2023-08-31T07:25:30;2.78;;;2.28;;
69240;SDS011;56352;55.750;13.198;2023-08-31T07:27:57;3.63;;;2.40;;
69240;SDS011;56352;55.750;13.198;2023-08-31T07:30:23;2.15;;;1.95;;
69240;SDS011;56352;55.750;13.198;2023-08-31T07:32:50;3.70;;;2.35;;
69240;SDS011;56352;55.750;13.198;2023-08-31T07:35:17;3.13;;;2.30;;
69240;SDS011;56352;55.750;13.198;2023-08-31T07:37:44;3.97;;;2.40;;
69240;SDS011;56352;55.750;13.198;2023-08-31T07:40:10;3.75;;;2.72;;
69240;SDS011;56352;55.750;13.198;2023-08-31T07:42:37;3.33;;;2.60;;
69240;SDS011;56352;55.750;13.198;2023-08-31T07:45:04;4.72;;;2.58;;
69240;SDS011;56352;55.750;13.198;2023-08-31T07:47:31;2.72;;;2.13;;
69240;SDS011;56352;55.750;13.198;2023-08-31T07:50:00;3.08;;;2.50;;
69240;SDS011;56352;55.750;13.198;2023-08-31T07:52:27;4.35;;;2.65;;
69240;SDS011;56352;55.750;13.198;2023-08-31T07:54:54;3.25;;;2.80;;
69240;SDS011;56352;55.750;13.198;2023-08-31T07:57:21;4.45;;;2.63;;
69240;SDS011;56352;55.750;13.198;2023-08-31T07:59:48;4.53;;;2.90;;
69240;SDS011;56352;55.750;13.198;2023-08-31T08:02:14;2.47;;;2.10;;
69240;SDS011;56352;55.750;13.198;2023-08-31T08:04:42;4.63;;;2.92;;
69240;SDS011;56352;55.750;13.198;2023-08-31T08:07:09;4.30;;;2.47;;
69240;SDS011;56352;55.750;13.198;2023-08-31T08:09:35;3.45;;;2.60;;
69240;SDS011;56352;55.750;13.198;2023-08-31T08:12:02;3.13;;;2.47;;
69240;SDS011;56352;55.750;13.198;2023-08-31T08:14:30;4.18;;;2.72;;
69240;SDS011;56352;55.750;13.198;2023-08-31T08:16:56;5.25;;;2.15;;
69240;SDS011;56352;55.750;13.198;2023-08-31T08:19:23;2.85;;;1.98;;
69240;SDS011;56352;55.750;13.198;2023-08-31T08:21:50;2.58;;;1.80;;
69240;SDS011;56352;55.750;13.198;2023-08-31T08:24:17;4.03;;;1.95;;
69240;SDS011;56352;55.750;13.198;2023-08-31T08:26:44;2.97;;;1.98;;
69240;SDS011;56352;55.750;13.198;2023-08-31T08:29:10;4.53;;;1.67;;
69240;SDS011;56352;55.750;13.198;2023-08-31T08:31:37;2.63;;;1.50;;
69240;SDS011;56352;55.750;13.198;2023-08-31T08:34:04;3.38;;;1.60;;
69240;SDS011;56352;55.750;13.198;2023-08-31T08:36:32;2.25;;;1.70;;
69240;SDS011;56352;55.750;13.198;2023-08-31T08:38:58;2.55;;;1.80;;
69240;SDS011;56352;55.750;13.198;2023-08-31T08:41:25;1.75;;;1.58;;
69240;SDS011;56352;55.750;13.198;2023-08-31T08:43:53;3.38;;;1.70;;
69240;SDS011;56352;55.750;13.198;2023-08-31T08:46:20;3.38;;;1.50;;
69240;SDS011;56352;55.750;13.198;2023-08-31T08:48:47;2.13;;;1.60;;
69240;SDS011;56352;55.750;13.198;2023-08-31T08:51:14;2.22;;;1.50;;
69240;SDS011;56352;55.750;13.198;2023-08-31T08:53:41;2.05;;;1.50;;
69240;SDS011;56352;55.750;13.198;2023-08-31T08:58:36;1.42;;;1.10;;
69240;SDS011;56352;55.750;13.198;2023-08-31T09:01:03;2.28;;;1.90;;
69240;SDS011;56352;55.750;13.198;2023-08-31T09:03:30;1.50;;;1.10;;
69240;SDS011;56352;55.750;13.198;2023-08-31T09:05:58;1.95;;;1.20;;
69240;SDS011;56352;55.750;13.198;2023-08-31T09:08:28;3.53;;;1.30;;
69240;SDS011;56352;55.750;13.198;2023-08-31T09:10:56;1.88;;;1.10;;
69240;SDS011;56352;55.750;13.198;2023-08-31T09:13:27;3.80;;;1.50;;
69240;SDS011;56352;55.750;13.198;2023-08-31T09:15:55;1.80;;;1.10;;
69240;SDS011;56352;55.750;13.198;2023-08-31T09:20:55;1.55;;;1.20;;
69240;SDS011;56352;55.750;13.198;2023-08-31T09:23:25;2.45;;;1.60;;
69240;SDS011;56352;55.750;13.198;2023-08-31T09:25:53;2.05;;;1.15;;
69240;SDS011;56352;55.750;13.198;2023-08-31T09:28:21;2.50;;;1.10;;
69240;SDS011;56352;55.750;13.198;2023-08-31T09:31:06;1.35;;;1.17;;
69240;SDS011;56352;55.750;13.198;2023-08-31T09:33:34;4.13;;;1.30;;
69240;SDS011;56352;55.750;13.198;2023-08-31T09:36:06;1.98;;;1.13;;
69240;SDS011;56352;55.750;13.198;2023-08-31T09:38:40;2.13;;;1.38;;
69240;SDS011;56352;55.750;13.198;2023-08-31T09:41:08;2.05;;;1.35;;
69240;SDS011;56352;55.750;13.198;2023-08-31T09:43:34;2.72;;;1.30;;
69240;SDS011;56352;55.750;13.198;2023-08-31T09:46:02;2.42;;;1.40;;
69240;SDS011;56352;55.750;13.198;2023-08-31T09:48:30;1.83;;;1.10;;
69240;SDS011;56352;55.750;13.198;2023-08-31T09:50:57;3.70;;;1.40;;
69240;SDS011;56352;55.750;13.198;2023-08-31T09:53:24;1.30;;;1.10;;
69240;SDS011;56352;55.750;13.198;2023-08-31T09:55:54;1.50;;;1.20;;
69240;SDS011;56352;55.750;13.198;2023-08-31T09:58:22;1.40;;;1.10;;
69240;SDS011;56352;55.750;13.198;2023-08-31T10:00:50;2.92;;;1.35;;
69240;SDS011;56352;55.750;13.198;2023-08-31T10:03:18;2.38;;;1.10;;
69240;SDS011;56352;55.750;13.198;2023-08-31T10:05:48;3.33;;;1.15;;
69240;SDS011;56352;55.750;13.198;2023-08-31T10:08:16;2.05;;;1.17;;
69240;SDS011;56352;55.750;13.198;2023-08-31T10:10:44;4.57;;;1.40;;
69240;SDS011;56352;55.750;13.198;2023-08-31T10:13:11;3.47;;;1.50;;
69240;SDS011;56352;55.750;13.198;2023-08-31T10:15:39;3.70;;;1.67;;
69240;SDS011;56352;55.750;13.198;2023-08-31T10:18:08;5.53;;;1.70;;
69240;SDS011;56352;55.750;13.198;2023-08-31T10:20:35;8.13;;;2.30;;
69240;SDS011;56352;55.750;13.198;2023-08-31T10:23:02;11.27;;;2.50;;
69240;SDS011;56352;55.750;13.198;2023-08-31T10:25:59;11.27;;;2.67;;
69240;SDS011;56352;55.750;13.198;2023-08-31T10:28:26;6.50;;;2.13;;
69240;SDS011;56352;55.750;13.198;2023-08-31T10:33:40;4.45;;;1.90;;
69240;SDS011;56352;55.750;13.198;2023-08-31T10:36:15;5.82;;;2.08;;
69240;SDS011;56352;55.750;13.198;2023-08-31T10:39:11;5.32;;;2.30;;
69240;SDS011;56352;55.750;13.198;2023-08-31T10:44:17;8.40;;;2.35;;
69240;SDS011;56352;55.750;13.198;2023-08-31T10:46:45;4.30;;;2.13;;
69240;SDS011;56352;55.750;13.198;2023-08-31T10:49:19;4.30;;;2.08;;
69240;SDS011;56352;55.750;13.198;2023-08-31T10:54:21;3.05;;;1.98;;
69240;SDS011;56352;55.750;13.198;2023-08-31T11:03:12;4.75;;;2.17;;
69240;SDS011;56352;55.750;13.198;2023-08-31T11:05:50;5.40;;;2.13;;
69240;SDS011;56352;55.750;13.198;2023-08-31T11:08:21;5.70;;;2.33;;
69240;SDS011;56352;55.750;13.198;2023-08-31T11:10:49;6.47;;;2.63;;
69240;SDS011;56352;55.750;13.198;2023-08-31T11:13:20;5.40;;;2.13;;
69240;SDS011;56352;55.750;13.198;2023-08-31T11:15:51;5.10;;;2.05;;
69240;SDS011;56352;55.750;13.198;2023-08-31T11:18:20;4.78;;;2.00;;
69240;SDS011;56352;55.750;13.198;2023-08-31T11:20:47;4.97;;;2.05;;
69240;SDS011;56352;55.750;13.198;2023-08-31T11:23:14;3.70;;;2.08;;
69240;SDS011;56352;55.750;13.198;2023-08-31T11:25:42;6.77;;;2.30;;
69240;SDS011;56352;55.750;13.198;2023-08-31T11:28:08;7.43;;;2.00;;
69240;SDS011;56352;55.750;13.198;2023-08-31T11:30:37;3.40;;;1.92;;
69240;SDS011;56352;55.750;13.198;2023-08-31T11:33:04;4.20;;;1.87;;
69240;SDS011;56352;55.750;13.198;2023-08-31T11:35:33;2.45;;;1.58;;
69240;SDS011;56352;55.750;13.198;2023-08-31T11:38:03;3.95;;;1.80;;
69240;SDS011;56352;55.750;13.198;2023-08-31T11:40:30;6.13;;;1.95;;
69240;SDS011;56352;55.750;13.198;2023-08-31T11:42:57;2.85;;;1.70;;
69240;SDS011;56352;55.750;13.198;2023-08-31T11:45:24;3.28;;;1.90;;
69240;SDS011;56352;55.750;13.198;2023-08-31T11:47:51;4.50;;;2.05;;
69240;SDS011;56352;55.750;13.198;2023-08-31T11:50:18;3.38;;;1.70;;
69240;SDS011;56352;55.750;13.198;2023-08-31T11:52:46;3.17;;;2.00;;
69240;SDS011;56352;55.750;13.198;2023-08-31T11:55:13;3.50;;;2.03;;
69240;SDS011;56352;55.750;13.198;2023-08-31T11:57:47;4.82;;;1.92;;
69240;SDS011;56352;55.750;13.198;2023-08-31T12:00:17;3.00;;;1.60;;
69240;SDS011;56352;55.750;13.198;2023-08-31T12:02:46;3.42;;;1.60;;
69240;SDS011;56352;55.750;13.198;2023-08-31T12:05:20;2.15;;;1.63;;
69240;SDS011;56352;55.750;13.198;2023-08-31T12:07:46;3.92;;;1.67;;
69240;SDS011;56352;55.750;13.198;2023-08-31T12:10:14;3.75;;;1.65;;
69240;SDS011;56352;55.750;13.198;2023-08-31T12:12:40;2.40;;;1.73;;
69240;SDS011;56352;55.750;13.198;2023-08-31T12:15:07;5.32;;;1.90;;
69240;SDS011;56352;55.750;13.198;2023-08-31T12:17:37;3.33;;;1.70;;
69240;SDS011;56352;55.750;13.198;2023-08-31T12:20:06;3.35;;;1.63;;
69240;SDS011;56352;55.750;13.198;2023-08-31T12:22:33;3.63;;;1.80;;
69240;SDS011;56352;55.750;13.198;2023-08-31T12:25:00;1.92;;;1.27;;
69240;SDS011;56352;55.750;13.198;2023-08-31T12:27:26;1.75;;;1.25;;
69240;SDS011;56352;55.750;13.198;2023-08-31T12:29:53;2.10;;;1.60;;
69240;SDS011;56352;55.750;13.198;2023-08-31T12:32:21;2.88;;;1.40;;
69240;SDS011;56352;55.750;13.198;2023-08-31T12:34:48;1.90;;;1.40;;
69240;SDS011;56352;55.750;13.198;2023-08-31T12:37:14;3.85;;;1.50;;
69240;SDS011;56352;55.750;13.198;2023-08-31T12:39:41;1.90;;;1.45;;
69240;SDS011;56352;55.750;13.198;2023-08-31T12:42:11;2.63;;;1.58;;
69240;SDS011;56352;55.750;13.198;2023-08-31T12:44:49;2.03;;;1.17;;
69240;SDS011;56352;55.750;13.198;2023-08-31T12:47:15;2.05;;;1.30;;
69240;SDS011;56352;55.750;13.198;2023-08-31T12:49:42;2.13;;;1.42;;
69240;SDS011;56352;55.750;13.198;2023-08-31T12:52:11;3.40;;;1.17;;
69240;SDS011;56352;55.750;13.198;2023-08-31T12:54:38;2.28;;;1.20;;
69240;SDS011;56352;55.750;13.198;2023-08-31T12:57:04;2.78;;;1.42;;
69240;SDS011;56352;55.750;13.198;2023-08-31T12:59:31;1.80;;;1.35;;
69240;SDS011;56352;55.750;13.198;2023-08-31T13:01:58;2.40;;;1.40;;
69240;SDS011;56352;55.750;13.198;2023-08-31T13:04:25;2.30;;;1.50;;
69240;SDS011;56352;55.750;13.198;2023-08-31T13:06:51;2.03;;;1.40;;
69240;SDS011;56352;55.750;13.198;2023-08-31T13:09:18;1.90;;;1.33;;
69240;SDS011;56352;55.750;13.198;2023-08-31T13:11:45;2.22;;;1.40;;
69240;SDS011;56352;55.750;13.198;2023-08-31T13:14:11;3.00;;;1.40;;
69240;SDS011;56352;55.750;13.198;2023-08-31T13:16:38;3.38;;;1.98;;
69240;SDS011;56352;55.750;13.198;2023-08-31T13:19:07;2.00;;;1.33;;
69240;SDS011;56352;55.750;13.198;2023-08-31T13:21:33;1.92;;;1.20;;
69240;SDS011;56352;55.750;13.198;2023-08-31T13:24:00;2.75;;;1.27;;
69240;SDS011;56352;55.750;13.198;2023-08-31T13:26:27;2.25;;;1.10;;
69240;SDS011;56352;55.750;13.198;2023-08-31T13:28:59;1.77;;;1.00;;
69240;SDS011;56352;55.750;13.198;2023-08-31T13:31:26;1.73;;;1.30;;
69240;SDS011;56352;55.750;13.198;2023-08-31T13:33:55;3.42;;;1.60;;
69240;SDS011;56352;55.750;13.198;2023-08-31T13:36:22;1.25;;;1.00;;
69240;SDS011;56352;55.750;13.198;2023-08-31T13:38:48;1.63;;;1.10;;
69240;SDS011;56352;55.750;13.198;2023-08-31T13:41:15;1.70;;;1.10;;
69240;SDS011;56352;55.750;13.198;2023-08-31T13:43:42;1.50;;;1.30;;
69240;SDS011;56352;55.750;13.198;2023-08-31T13:46:09;1.52;;;1.30;;
69240;SDS011;56352;55.750;13.198;2023-08-31T13:48:37;1.33;;;1.17;;
69240;SDS011;56352;55.750;13.198;2023-08-31T13:51:04;2.78;;;1.20;;
69240;SDS011;56352;55.750;13.198;2023-08-31T13:53:31;1.83;;;1.10;;
69240;SDS011;56352;55.750;13.198;2023-08-31T13:55:57;2.38;;;1.45;;
69240;SDS011;56352;55.750;13.198;2023-08-31T13:58:24;2.30;;;1.30;;
69240;SDS011;56352;55.750;13.198;2023-08-31T14:00:51;3.28;;;1.38;;
69240;SDS011;56352;55.750;13.198;2023-08-31T14:03:18;2.33;;;1.27;;
69240;SDS011;56352;55.750;13.198;2023-08-31T14:05:48;3.05;;;1.38;;
69240;SDS011;56352;55.750;13.198;2023-08-31T14:08:15;4.30;;;1.70;;
69240;SDS011;56352;55.750;13.198;2023-08-31T14:10:42;4.15;;;1.70;;
69240;SDS011;56352;55.750;13.198;2023-08-31T14:13:09;10.60;;;2.05;;
69240;SDS011;56352;55.750;13.198;2023-08-31T14:15:36;6.93;;;1.63;;
69240;SDS011;56352;55.750;13.198;2023-08-31T14:18:03;4.30;;;1.45;;
69240;SDS011;56352;55.750;13.198;2023-08-31T14:20:30;5.00;;;1.30;;
69240;SDS011;56352;55.750;13.198;2023-08-31T14:22:57;1.52;;;1.20;;
69240;SDS011;56352;55.750;13.198;2023-08-31T14:25:24;1.75;;;1.25;;
69240;SDS011;56352;55.750;13.198;2023-08-31T14:27:52;2.10;;;1.38;;
69240;SDS011;56352;55.750;13.198;2023-08-31T14:30:18;3.10;;;1.60;;
69240;SDS011;56352;55.750;13.198;2023-08-31T14:32:45;2.05;;;1.10;;
69240;SDS011;56352;55.750;13.198;2023-08-31T14:35:12;2.33;;;1.40;;
69240;SDS011;56352;55.750;13.198;2023-08-31T14:37:38;2.00;;;1.33;;
69240;SDS011;56352;55.750;13.198;2023-08-31T14:40:06;2.00;;;1.35;;
69240;SDS011;56352;55.750;13.198;2023-08-31T14:42:33;1.58;;;1.17;;
69240;SDS011;56352;55.750;13.198;2023-08-31T14:45:01;1.48;;;1.23;;
69240;SDS011;56352;55.750;13.198;2023-08-31T14:47:28;1.35;;;1.10;;
69240;SDS011;56352;55.750;13.198;2023-08-31T14:49:55;1.30;;;1.20;;
69240;SDS011;56352;55.750;13.198;2023-08-31T14:52:22;1.98;;;1.45;;
69240;SDS011;56352;55.750;13.198;2023-08-31T14:54:48;3.83;;;1.35;;
69240;SDS011;56352;55.750;13.198;2023-08-31T14:57:15;2.35;;;1.13;;
69240;SDS011;56352;55.750;13.198;2023-08-31T14:59:42;2.65;;;1.27;;
69240;SDS011;56352;55.750;13.198;2023-08-31T15:02:09;2.13;;;1.30;;
69240;SDS011;56352;55.750;13.198;2023-08-31T15:04:35;2.05;;;1.30;;